createdAt,value
2023-04-21T00:01:45.710Z,99.90
2023-04-21T00:04:13.963Z,99.90
2023-04-21T00:09:09.776Z,99.90
2023-04-21T00:11:37.253Z,99.90
2023-04-21T00:18:59.489Z,99.90
2023-04-21T00:33:45.854Z,99.90
2023-04-21T00:38:40.531Z,99.90
2023-04-21T00:43:58.314Z,99.90
2023-04-21T00:53:50.831Z,99.90
2023-04-21T00:56:19.073Z,99.90
2023-04-21T00:58:46.667Z,99.90
2023-04-21T01:11:12.548Z,99.90
2023-04-21T01:13:41.669Z,99.90
2023-04-21T01:23:34.919Z,99.90
2023-04-21T01:38:20.725Z,99.90
2023-04-21T01:40:51.905Z,99.90
2023-04-21T01:43:24.645Z,99.90
2023-04-21T01:48:20.261Z,99.90
2023-04-21T01:58:10.565Z,99.90
2023-04-21T02:03:05.571Z,99.90
2023-04-21T02:05:33.023Z,99.90
2023-04-21T02:27:41.618Z,99.90
2023-04-21T02:30:09.514Z,99.90
2023-04-21T02:32:36.986Z,99.90
2023-04-21T02:49:50.377Z,99.90
2023-04-21T02:59:40.260Z,99.90
2023-04-21T03:07:11.963Z,99.90
2023-04-21T03:09:40.843Z,99.90
2023-04-21T03:19:33.205Z,99.90
2023-04-21T03:26:57.061Z,99.90
2023-04-21T03:36:48.070Z,99.90
2023-04-21T03:41:48.460Z,99.90
2023-04-21T03:49:10.524Z,99.90
2023-04-21T03:54:05.070Z,99.90
2023-04-21T03:58:59.668Z,99.90
2023-04-21T04:01:26.810Z,99.90
2023-04-21T04:03:53.981Z,99.90
2023-04-21T04:06:21.417Z,99.90
2023-04-21T04:13:43.394Z,99.90
2023-04-21T04:16:10.538Z,99.90
2023-04-21T04:18:37.635Z,99.90
2023-04-21T04:21:08.473Z,99.90
2023-04-21T04:23:35.758Z,99.90
2023-04-21T04:26:05.667Z,99.90
2023-04-21T04:28:33.792Z,99.90
2023-04-21T04:31:01.400Z,99.90
2023-04-21T04:33:28.972Z,99.90
2023-04-21T04:35:56.026Z,99.90
2023-04-21T04:38:23.215Z,99.90
2023-04-21T04:41:02.096Z,99.90
2023-04-21T04:45:56.699Z,99.90
2023-04-21T04:48:24.528Z,99.90
2023-04-21T04:50:51.815Z,99.90
2023-04-21T04:53:18.902Z,99.90
2023-04-21T04:55:47.223Z,99.90
2023-04-21T05:10:32.372Z,99.90
2023-04-21T05:12:59.578Z,99.90
2023-04-21T05:20:22.112Z,99.90
2023-04-21T05:25:16.694Z,99.90
2023-04-21T05:30:11.768Z,99.90
2023-04-21T05:32:38.915Z,99.90
2023-04-21T05:40:01.534Z,99.90
2023-04-21T05:47:23.843Z,99.90
2023-04-21T05:49:54.225Z,99.90
2023-04-21T05:52:21.884Z,99.90
2023-04-21T06:02:13.163Z,99.90
2023-04-21T06:04:40.739Z,99.90
2023-04-21T06:07:10.377Z,99.90
2023-04-21T06:14:33.598Z,99.90
2023-04-21T06:17:00.686Z,99.90
2023-04-21T06:19:27.756Z,99.90
2023-04-21T06:21:56.491Z,99.90
2023-04-21T06:29:21.548Z,99.90
2023-04-21T06:34:16.381Z,99.90
2023-04-21T06:36:43.669Z,99.90
2023-04-21T06:39:10.961Z,99.90
2023-04-21T06:44:05.596Z,99.90
2023-04-21T06:46:32.850Z,99.90
2023-04-21T06:49:00.043Z,99.90
2023-04-21T06:51:27.138Z,99.90
2023-04-21T06:53:54.211Z,99.90
2023-04-21T06:56:21.295Z,99.90
2023-04-21T06:58:48.432Z,99.90
2023-04-21T07:01:15.603Z,99.90
2023-04-21T07:06:11.002Z,99.90
2023-04-21T07:11:06.080Z,99.90
2023-04-21T07:13:33.262Z,99.90
2023-04-21T07:16:00.712Z,99.90
2023-04-21T07:18:27.758Z,99.90
2023-04-21T07:20:54.838Z,99.90
2023-04-21T07:25:49.376Z,99.90
2023-04-21T07:28:16.435Z,99.90
2023-04-21T07:30:43.705Z,99.90
2023-04-21T07:33:10.979Z,99.90
2023-04-21T07:35:38.238Z,99.90
2023-04-21T07:40:33.134Z,99.90
2023-04-21T07:43:00.302Z,99.90
2023-04-21T07:45:27.434Z,99.90
2023-04-21T07:50:22.372Z,99.90
2023-04-21T07:52:49.424Z,99.90
2023-04-21T07:55:16.573Z,99.90
2023-04-21T08:00:12.335Z,99.90
2023-04-21T08:05:07.843Z,99.90
2023-04-21T08:07:35.133Z,99.90
2023-04-21T08:15:14.754Z,99.90
2023-04-21T08:20:10.927Z,99.90
2023-04-21T08:22:38.319Z,99.90
2023-04-21T08:25:06.537Z,99.90
2023-04-21T08:27:33.932Z,99.90
2023-04-21T08:30:01.073Z,99.90
2023-04-21T08:32:28.358Z,99.90
2023-04-21T08:34:55.652Z,99.90
2023-04-21T08:37:23.399Z,99.90
2023-04-21T08:39:54.596Z,99.90
2023-04-21T08:42:21.785Z,99.90
2023-04-21T08:44:49.092Z,99.90
2023-04-21T08:47:16.214Z,99.90
2023-04-21T08:49:45.364Z,99.90
2023-04-21T08:52:16.760Z,99.90
2023-04-21T08:54:44.652Z,99.80
2023-04-21T08:57:15.739Z,99.90
2023-04-21T08:59:44.842Z,99.70
2023-04-21T09:02:19.057Z,99.70
2023-04-21T09:04:51.558Z,99.40
2023-04-21T09:07:36.163Z,98.60
2023-04-21T09:10:06.260Z,99.00
2023-04-21T09:12:33.399Z,98.50
2023-04-21T09:15:05.462Z,98.80
2023-04-21T09:17:33.922Z,98.70
2023-04-21T09:20:21.486Z,98.30
2023-04-21T09:22:51.296Z,98.10
2023-04-21T09:25:22.880Z,97.70
2023-04-21T09:27:49.984Z,97.70
2023-04-21T09:30:20.932Z,98.00
2023-04-21T09:32:48.431Z,96.90
2023-04-21T09:35:15.591Z,97.30
2023-04-21T09:37:45.807Z,97.20
2023-04-21T09:40:19.471Z,97.20
2023-04-21T09:42:46.968Z,96.80
2023-04-21T09:45:36.580Z,96.80
2023-04-21T09:48:10.160Z,97.00
2023-04-21T09:53:15.100Z,96.80
2023-04-21T09:55:43.904Z,96.60
2023-04-21T09:58:16.132Z,95.80
2023-04-21T10:00:43.984Z,96.00
2023-04-21T10:03:14.043Z,97.10
2023-04-21T10:05:43.097Z,95.20
2023-04-21T10:08:12.310Z,95.00
2023-04-21T10:10:40.209Z,95.00
2023-04-21T10:13:12.926Z,95.10
2023-04-21T10:15:42.239Z,95.20
2023-04-21T10:18:22.176Z,94.80
2023-04-21T10:21:03.278Z,94.00
2023-04-21T10:23:33.363Z,93.00
2023-04-21T10:26:03.793Z,93.20
2023-04-21T10:28:46.872Z,93.70
2023-04-21T10:31:53.174Z,93.40
2023-04-21T10:34:36.435Z,93.60
2023-04-21T10:37:06.598Z,93.00
2023-04-21T10:39:53.706Z,91.50
2023-04-21T10:42:28.472Z,92.20
2023-04-21T10:44:58.625Z,92.60
2023-04-21T10:47:44.638Z,92.50
2023-04-21T10:50:17.978Z,92.10
2023-04-21T10:52:51.737Z,93.00
2023-04-21T10:55:20.778Z,91.40
2023-04-21T10:57:48.635Z,90.50
2023-04-21T11:00:20.122Z,91.40
2023-04-21T11:03:08.158Z,91.90
2023-04-21T11:05:41.584Z,91.80
2023-04-21T11:08:14.900Z,90.20
2023-04-21T11:10:54.697Z,90.40
2023-04-21T11:13:25.012Z,90.50
2023-04-21T11:16:10.425Z,90.20
2023-04-21T11:18:43.620Z,88.70
2023-04-21T11:21:17.792Z,88.10
2023-04-21T11:23:55.621Z,86.50
2023-04-21T11:26:35.406Z,85.10
2023-04-21T11:29:06.118Z,86.00
2023-04-21T11:31:35.351Z,86.80
2023-04-21T11:34:08.334Z,85.00
2023-04-21T11:36:42.356Z,84.70
2023-04-21T11:39:12.486Z,82.80
2023-04-21T11:41:42.630Z,85.40
2023-04-21T11:44:30.175Z,83.20
2023-04-21T11:46:57.583Z,81.50
2023-04-21T11:49:29.511Z,79.50
2023-04-21T11:51:56.982Z,78.00
2023-04-21T11:54:24.365Z,79.90
2023-04-21T11:56:55.087Z,80.40
2023-04-21T11:59:26.330Z,77.20
2023-04-21T12:01:54.953Z,73.50
2023-04-21T12:04:25.224Z,77.70
2023-04-21T12:07:03.240Z,77.90
2023-04-21T12:09:32.085Z,76.70
2023-04-21T12:11:59.907Z,78.90
2023-04-21T12:14:27.103Z,77.60
2023-04-21T12:16:57.862Z,75.10
2023-04-21T12:19:41.340Z,74.60
2023-04-21T12:22:18.836Z,73.70
2023-04-21T12:24:47.448Z,72.90
2023-04-21T12:27:14.817Z,71.90
2023-04-21T12:29:42.654Z,72.30
2023-04-21T12:32:10.560Z,73.20
2023-04-21T12:34:37.887Z,75.20
2023-04-21T12:37:05.190Z,74.20
2023-04-21T12:39:33.012Z,74.40
2023-04-21T12:42:01.561Z,75.10
2023-04-21T12:44:28.683Z,76.10
2023-04-21T12:46:57.189Z,74.80
2023-04-21T12:49:25.600Z,74.80
2023-04-21T12:51:52.798Z,74.40
2023-04-21T12:54:19.959Z,73.80
2023-04-21T12:56:47.233Z,70.60
2023-04-21T13:01:45.012Z,73.40
2023-04-21T13:04:12.539Z,69.90
2023-04-21T13:06:40.167Z,73.20
2023-04-21T13:14:04.166Z,69.30
2023-04-21T13:16:32.039Z,69.10
2023-04-21T13:21:26.877Z,74.20
2023-04-21T13:26:22.174Z,62.50
2023-04-21T13:31:17.074Z,64.00
2023-04-21T13:33:44.449Z,66.80
2023-04-21T13:38:41.065Z,60.70
2023-04-21T13:58:24.139Z,57.30
2023-04-21T14:00:51.498Z,59.30
2023-04-21T14:03:19.385Z,59.00
2023-04-21T14:05:46.889Z,57.80
2023-04-21T14:08:14.089Z,57.80
2023-04-21T14:10:41.270Z,57.40
2023-04-21T14:13:11.128Z,56.80
2023-04-21T14:15:42.191Z,56.90
2023-04-21T14:18:09.455Z,57.50
2023-04-21T14:20:36.588Z,55.60
2023-04-21T14:23:03.961Z,54.30
2023-04-21T14:25:31.353Z,55.50
2023-04-21T14:27:58.506Z,53.90
2023-04-21T14:30:25.664Z,56.10
2023-04-21T14:32:52.916Z,56.10
2023-04-21T14:35:20.045Z,55.20
2023-04-21T14:37:47.344Z,56.30
2023-04-21T14:40:14.606Z,56.00
2023-04-21T14:42:42.006Z,57.80
2023-04-21T14:45:09.976Z,55.50
2023-04-21T14:47:38.285Z,56.20
2023-04-21T14:50:06.975Z,57.20
2023-04-21T14:52:34.180Z,56.10
2023-04-21T14:55:01.428Z,56.50
2023-04-21T14:57:28.574Z,57.50
2023-04-21T14:59:56.089Z,57.20
2023-04-21T15:02:23.354Z,57.00
2023-04-21T15:04:50.866Z,56.90
2023-04-21T15:07:23.873Z,57.20
2023-04-21T15:09:51.948Z,56.40
2023-04-21T15:12:19.277Z,54.00
2023-04-21T15:14:46.435Z,54.90
2023-04-21T15:17:13.803Z,55.80
2023-04-21T15:19:41.150Z,54.60
2023-04-21T15:22:08.422Z,55.30
2023-04-21T15:24:35.596Z,54.40
2023-04-21T15:27:02.815Z,53.90
2023-04-21T15:29:30.023Z,55.90
2023-04-21T15:31:57.405Z,56.70
2023-04-21T15:34:24.590Z,53.80
2023-04-21T15:36:51.760Z,55.30
2023-04-21T15:39:18.852Z,56.40
2023-04-21T15:41:46.177Z,55.90
2023-04-21T15:44:13.280Z,55.30
2023-04-21T15:46:40.568Z,55.10
2023-04-21T15:49:07.716Z,54.30
2023-04-21T15:51:35.608Z,53.00
2023-04-21T15:54:04.711Z,53.70
2023-04-21T15:56:31.946Z,55.10
2023-04-21T15:58:59.130Z,55.10
2023-04-21T16:01:26.384Z,55.20
2023-04-21T16:03:53.814Z,55.40
2023-04-21T16:06:21.552Z,54.70
2023-04-21T16:08:48.827Z,55.00
2023-04-21T16:11:16.475Z,56.30
2023-04-21T16:13:43.643Z,55.60
2023-04-21T16:16:10.849Z,55.30
2023-04-21T16:18:38.157Z,55.80
2023-04-21T16:21:05.520Z,55.50
2023-04-21T16:23:32.827Z,54.30
2023-04-21T16:26:00.006Z,54.20
2023-04-21T16:28:27.280Z,54.80
2023-04-21T16:30:54.507Z,53.90
2023-04-21T16:33:21.666Z,52.20
2023-04-21T16:35:48.927Z,53.30
2023-04-21T16:38:16.141Z,54.00
2023-04-21T16:40:43.270Z,54.10
2023-04-21T16:43:10.632Z,53.90
2023-04-21T16:45:38.067Z,54.60
2023-04-21T16:48:05.407Z,54.30
2023-04-21T16:50:32.634Z,54.20
2023-04-21T16:52:59.827Z,54.60
2023-04-21T16:55:28.035Z,56.00
2023-04-21T16:57:56.545Z,55.90
2023-04-21T17:00:23.803Z,56.10
2023-04-21T17:02:51.043Z,55.30
2023-04-21T17:05:18.416Z,55.10
2023-04-21T17:07:45.569Z,54.30
2023-04-21T17:10:12.769Z,54.50
2023-04-21T17:12:39.954Z,54.60
2023-04-21T17:15:08.105Z,53.80
2023-04-21T17:17:43.057Z,54.40
2023-04-21T17:20:14.227Z,54.40
2023-04-21T17:22:42.286Z,54.10
2023-04-21T17:25:15.945Z,55.90
2023-04-21T17:27:43.270Z,56.10
2023-04-21T17:30:11.053Z,56.60
2023-04-21T17:32:40.527Z,56.10
2023-04-21T17:35:08.356Z,55.60
2023-04-21T17:37:36.154Z,56.60
2023-04-21T17:40:03.863Z,56.80
2023-04-21T17:42:31.215Z,56.60
2023-04-21T17:44:58.272Z,57.10
2023-04-21T17:47:25.738Z,57.80
2023-04-21T17:49:52.933Z,57.10
2023-04-21T17:52:20.059Z,58.10
2023-04-21T17:54:47.175Z,57.70
2023-04-21T17:57:14.261Z,57.70
2023-04-21T17:59:41.410Z,57.30
2023-04-21T18:02:08.804Z,58.30
2023-04-21T18:04:36.643Z,58.20
2023-04-21T18:07:04.221Z,58.70
2023-04-21T18:09:31.936Z,59.00
2023-04-21T18:11:59.184Z,59.50
2023-04-21T18:14:26.918Z,59.90
2023-04-21T18:16:54.528Z,59.50
2023-04-21T18:19:21.673Z,59.30
2023-04-21T18:21:49.044Z,59.60
2023-04-21T18:24:16.290Z,59.60
2023-04-21T18:26:44.068Z,61.10
2023-04-21T18:29:11.182Z,61.40
2023-04-21T18:31:38.391Z,60.90
2023-04-21T18:34:06.205Z,62.50
2023-04-21T18:36:33.830Z,61.80
2023-04-21T18:41:29.584Z,62.60
2023-04-21T18:43:56.746Z,63.90
2023-04-21T18:46:24.082Z,62.50
2023-04-21T18:48:51.316Z,63.30
2023-04-21T18:51:18.470Z,62.90
2023-04-21T18:53:46.382Z,63.70
2023-04-21T18:58:41.132Z,63.40
2023-04-21T19:01:08.760Z,64.50
2023-04-21T19:03:36.106Z,64.20
2023-04-21T19:06:03.658Z,64.80
2023-04-21T19:08:42.161Z,64.80
2023-04-21T19:11:17.727Z,65.10
2023-04-21T19:13:44.941Z,65.70
2023-04-21T19:23:41.686Z,65.80
2023-04-21T19:38:32.426Z,80.20
2023-04-21T19:55:46.532Z,69.20
2023-04-21T19:58:15.998Z,70.80
2023-04-21T20:00:49.290Z,69.90
2023-04-21T20:03:16.609Z,69.80
2023-04-21T20:05:45.678Z,69.90
2023-04-21T20:08:13.020Z,70.90
2023-04-21T20:10:43.883Z,70.50
2023-04-21T20:13:14.511Z,70.60
2023-04-21T20:15:42.015Z,72.30
2023-04-21T20:18:09.314Z,75.70
2023-04-21T20:20:36.884Z,75.30
2023-04-21T20:25:31.726Z,87.00
2023-04-21T20:35:21.787Z,81.10
2023-04-21T20:45:17.371Z,90.30
2023-04-21T21:00:07.267Z,79.50
2023-04-21T21:07:30.898Z,83.40
2023-04-21T21:27:14.569Z,93.40
2023-04-21T21:34:36.614Z,91.20
2023-04-21T21:49:21.984Z,93.70
2023-04-21T21:51:49.836Z,92.90
2023-04-21T21:54:17.056Z,91.10
2023-04-21T21:59:12.645Z,93.10
2023-04-21T22:01:39.847Z,93.20
2023-04-21T22:04:07.443Z,91.20
2023-04-21T22:09:03.184Z,91.20
2023-04-21T22:11:31.075Z,90.90
2023-04-21T22:14:05.107Z,90.10
2023-04-21T22:16:42.985Z,92.90
2023-04-21T22:19:10.632Z,90.00
2023-04-21T22:29:00.778Z,92.40
2023-04-21T22:31:27.902Z,90.10
2023-04-21T22:33:55.035Z,90.00
2023-04-21T22:36:22.676Z,89.60
2023-04-21T22:38:49.813Z,89.00
2023-04-21T22:41:16.937Z,92.00
2023-04-21T22:46:11.980Z,88.60
2023-04-21T22:51:07.396Z,90.80
2023-04-21T22:56:03.065Z,91.00
2023-04-21T22:58:30.341Z,87.80
2023-04-21T23:08:20.496Z,91.10
2023-04-21T23:10:47.960Z,89.70
2023-04-21T23:13:15.131Z,88.30
2023-04-21T23:23:05.268Z,88.80
2023-04-21T23:25:32.468Z,90.80
2023-04-21T23:27:59.592Z,90.80
2023-04-21T23:35:21.993Z,90.50
2023-04-21T23:45:15.958Z,89.00
2023-04-21T23:50:11.469Z,89.20
2023-04-21T23:52:39.539Z,91.10
